Time;durP1;ratioP1;P1;durP2;ratioP2;P2;SDS_P1;SDS_P2;PMS_P1;PMS_P2;Temp;Humidity;BMP_temperature;BMP_pressure;BME280_temperature;BME280_humidity;BME280_pressure;Samples;Min_cycle;Max_cycle;Signal;HPM_P1;HPM_P2
2021/04/12 00:00:42;;;;;;;5.07;3.70;;;0.40;99.90;;;;;;5074543;28;20091;-78
2021/04/12 00:03:21;;;;;;;6.88;4.00;;;0.70;99.90;;;;;;5096377;28;20394;-78
2021/04/12 00:06:00;;;;;;;8.38;4.10;;;0.30;99.90;;;;;;5091608;28;20036;-79
2021/04/12 00:08:50;;;;;;;6.78;4.20;;;0.20;99.90;;;;;;5100605;28;20033;-80
2021/04/12 00:11:47;;;;;;;8.35;4.07;;;0.10;99.90;;;;;;5100056;28;20036;-79
2021/04/12 00:14:35;;;;;;;8.02;4.45;;;0.10;99.90;;;;;;5080897;28;20064;-78
2021/04/12 00:17:02;;;;;;;7.65;3.85;;;0.10;99.90;;;;;;5080700;28;20036;-78
2021/04/12 00:20:01;;;;;;;10.57;4.03;;;0.00;99.90;;;;;;5092039;28;20109;-79
2021/04/12 00:22:45;;;;;;;5.45;3.80;;;0.00;99.90;;;;;;5086195;28;20085;-78
2021/04/12 00:25:38;;;;;;;8.57;3.97;;;0.00;99.90;;;;;;5080713;28;20036;-79
2021/04/12 00:28:11;;;;;;;7.30;3.95;;;0.00;99.90;;;;;;5076348;28;20052;-79
2021/04/12 00:30:42;;;;;;;6.68;3.50;;;0.10;99.90;;;;;;5091150;28;20035;-77
2021/04/12 00:33:15;;;;;;;5.78;3.65;;;0.20;99.90;;;;;;5089138;28;20060;-80
2021/04/12 00:35:51;;;;;;;8.65;3.95;;;0.30;99.90;;;;;;5076190;28;20067;-77
2021/04/12 00:38:29;;;;;;;6.18;3.60;;;0.40;99.90;;;;;;5093522;28;20055;-79
2021/04/12 00:41:08;;;;;;;6.43;3.90;;;0.50;99.90;;;;;;5097747;28;20449;-78
2021/04/12 00:43:58;;;;;;;7.72;3.70;;;0.60;99.90;;;;;;5085560;28;20115;-79
2021/04/12 00:46:31;;;;;;;5.57;3.28;;;0.80;99.90;;;;;;5070547;28;20115;-78
2021/04/12 00:49:22;;;;;;;6.88;3.17;;;0.90;99.90;;;;;;5078023;28;20427;-79
2021/04/12 00:51:56;;;;;;;5.80;2.92;;;1.00;99.90;;;;;;5103098;28;20425;-78
2021/04/12 00:54:43;;;;;;;5.10;3.22;;;1.00;99.90;;;;;;5083479;28;20444;-79
2021/04/12 00:57:12;;;;;;;;;;;1.00;99.90;;;;;;5105700;28;20499;-80
2021/04/12 00:59:44;;;;;;;7.50;3.67;;;0.90;99.90;;;;;;5090347;28;20281;-78
2021/04/12 01:02:28;;;;;;;8.93;3.10;;;0.80;99.90;;;;;;5081435;28;20122;-80
2021/04/12 01:05:19;;;;;;;8.70;3.20;;;0.80;99.90;;;;;;5094067;28;20040;-80
2021/04/12 01:08:00;;;;;;;5.55;2.97;;;0.70;99.90;;;;;;5073052;28;20047;-82
2021/04/12 01:10:44;;;;;;;5.20;3.25;;;0.60;99.90;;;;;;5079741;28;20130;-79
2021/04/12 01:13:39;;;;;;;10.80;3.58;;;0.50;99.90;;;;;;5089437;28;20040;-80
2021/04/12 01:16:13;;;;;;;6.55;2.92;;;0.40;99.90;;;;;;5100556;28;20075;-79
2021/04/12 01:19:01;;;;;;;13.65;3.90;;;0.30;99.90;;;;;;5096106;28;20111;-80
2021/04/12 01:21:54;;;;;;;8.23;3.70;;;0.20;99.90;;;;;;5076248;28;20036;-79
2021/04/12 01:24:54;;;;;;;7.47;3.40;;;0.10;99.90;;;;;;5061164;28;20051;-79
2021/04/12 01:28:01;;;;;;;6.75;3.47;;;0.00;99.90;;;;;;5087283;28;20032;-81
2021/04/12 01:30:53;;;;;;;5.05;2.97;;;-0.10;99.90;;;;;;5104854;28;20059;-78
2021/04/12 01:33:28;;;;;;;5.82;3.78;;;-0.10;99.90;;;;;;5095160;28;20036;-78
2021/04/12 01:36:20;;;;;;;7.55;3.50;;;0.00;99.90;;;;;;5095141;28;20040;-78
2021/04/12 01:39:12;;;;;;;7.32;2.92;;;0.20;99.90;;;;;;5096261;28;20044;-80
2021/04/12 01:42:21;;;;;;;10.70;3.55;;;0.30;99.90;;;;;;5077309;28;20105;-79
2021/04/12 01:44:59;;;;;;;6.43;3.42;;;0.30;99.90;;;;;;4992610;28;20038;-78
2021/04/12 01:47:48;;;;;;;7.88;3.75;;;0.40;99.90;;;;;;5102865;28;20074;-81
2021/04/12 01:50:32;;;;;;;6.60;3.60;;;0.50;99.90;;;;;;5076198;28;20036;-80
2021/04/12 01:53:32;;;;;;;9.38;4.20;;;0.50;99.90;;;;;;5076178;28;20528;-78
2021/04/12 01:56:30;;;;;;;8.60;3.85;;;0.50;99.90;;;;;;5068454;28;20489;-81
2021/04/12 01:58:59;;;;;;;;;;;0.50;99.90;;;;;;5073400;28;20135;-80
2021/04/12 02:01:48;;;;;;;11.50;4.03;;;0.50;99.90;;;;;;5095831;28;20372;-77
2021/04/12 02:04:59;;;;;;;9.68;3.90;;;0.40;99.90;;;;;;5109183;28;20480;-79
2021/04/12 02:07:27;;;;;;;7.13;3.92;;;0.30;99.90;;;;;;5063495;28;20480;-81
2021/04/12 02:10:24;;;;;;;10.00;4.30;;;0.20;99.90;;;;;;5111969;28;20445;-80
2021/04/12 02:12:53;;;;;;;9.33;3.60;;;0.20;99.90;;;;;;5095068;28;20032;-78
2021/04/12 02:15:29;;;;;;;9.07;5.13;;;0.20;99.90;;;;;;5103821;28;20116;-80
2021/04/12 02:18:24;;;;;;;5.47;3.63;;;0.10;99.90;;;;;;5079436;28;20043;-82
2021/04/12 02:21:16;;;;;;;7.88;3.70;;;0.20;99.90;;;;;;5081647;28;20032;-80
2021/04/12 02:24:06;;;;;;;7.38;4.25;;;0.20;99.90;;;;;;5085796;28;20028;-79
2021/04/12 02:26:54;;;;;;;8.65;3.40;;;0.10;99.90;;;;;;5077340;28;20035;-81
2021/04/12 02:29:50;;;;;;;5.93;3.25;;;0.10;99.90;;;;;;5075461;28;20085;-81
2021/04/12 02:32:55;;;;;;;8.40;3.25;;;0.20;99.90;;;;;;5076586;28;20032;-78
2021/04/12 02:35:31;;;;;;;5.05;3.03;;;0.30;99.90;;;;;;5087043;28;20044;-81
2021/04/12 02:38:48;;;;;;;7.20;3.55;;;0.50;99.90;;;;;;5101650;28;20045;-79
2021/04/12 02:41:23;;;;;;;5.88;3.20;;;0.60;99.90;;;;;;5043856;28;20048;-81
2021/04/12 02:43:56;;;;;;;7.40;3.53;;;0.60;99.90;;;;;;5101041;28;20033;-79
2021/04/12 02:46:46;;;;;;;4.78;3.17;;;0.50;99.90;;;;;;5092350;28;20028;-77
2021/04/12 02:49:49;;;;;;;7.45;3.33;;;0.50;99.90;;;;;;5081718;28;20046;-79
2021/04/12 02:52:45;;;;;;;5.95;3.03;;;0.40;99.90;;;;;;5086870;28;20463;-79
2021/04/12 02:55:38;;;;;;;8.40;2.90;;;0.30;99.90;;;;;;5081106;28;20035;-81
2021/04/12 02:58:34;;;;;;;12.73;4.15;;;0.30;99.90;;;;;;5111599;28;20147;-82
2021/04/12 03:01:34;;;;;;;7.47;3.40;;;0.20;99.90;;;;;;5097393;28;20447;-80
2021/04/12 03:04:15;;;;;;;5.80;3.10;;;0.10;99.90;;;;;;5075846;28;20036;-81
2021/04/12 03:07:00;;;;;;;8.45;3.70;;;0.10;99.90;;;;;;5091924;28;20028;-80
2021/04/12 03:09:34;;;;;;;8.93;3.85;;;0.00;99.90;;;;;;5093024;28;20051;-81
2021/04/12 03:12:39;;;;;;;10.43;3.67;;;0.00;99.90;;;;;;5093209;28;20066;-80
2021/04/12 03:15:25;;;;;;;7.68;3.80;;;-0.10;99.90;;;;;;5099068;28;20122;-82
2021/04/12 03:18:16;;;;;;;5.70;3.60;;;0.00;99.90;;;;;;5065023;28;20040;-80
2021/04/12 03:21:12;;;;;;;8.75;3.70;;;-0.20;99.90;;;;;;5093352;28;20043;-80
2021/04/12 03:23:58;;;;;;;9.25;4.07;;;0.00;99.90;;;;;;5064105;28;20043;-82
2021/04/12 03:26:26;;;;;;;8.80;3.78;;;-0.10;99.90;;;;;;5088943;28;20032;-80
2021/04/12 03:29:08;;;;;;;6.75;3.78;;;0.00;99.90;;;;;;5057275;28;20040;-78
2021/04/12 03:31:45;;;;;;;9.27;3.90;;;-0.10;99.90;;;;;;5063892;28;20041;-81
2021/04/12 03:34:28;;;;;;;7.00;3.95;;;-0.20;99.90;;;;;;5090950;28;20492;-79
2021/04/12 03:37:31;;;;;;;7.05;3.80;;;-0.40;99.90;;;;;;5083617;28;20047;-82
2021/04/12 03:40:08;;;;;;;6.00;3.40;;;-0.50;99.90;;;;;;5078906;28;20047;-80
2021/04/12 03:42:54;;;;;;;;;;;-0.50;99.90;;;;;;5085763;28;20059;-80
2021/04/12 03:45:42;;;;;;;7.40;4.10;;;-0.60;99.90;;;;;;5107038;28;19923;-82
2021/04/12 03:48:33;;;;;;;5.93;3.30;;;-0.60;99.90;;;;;;5076526;28;20437;-81
2021/04/12 03:51:35;;;;;;;9.02;4.25;;;-0.70;99.90;;;;;;5101234;28;20035;-79
2021/04/12 03:54:23;;;;;;;7.03;4.53;;;-0.70;99.90;;;;;;5098849;28;20047;-80
2021/04/12 03:57:06;;;;;;;;;;;-0.70;99.90;;;;;;5089224;28;20115;-81
2021/04/12 03:59:56;;;;;;;7.75;4.38;;;-0.80;99.90;;;;;;5092333;28;19929;-80
2021/04/12 04:02:40;;;;;;;8.63;4.10;;;-0.80;99.90;;;;;;5083658;28;20162;-79
2021/04/12 04:05:34;;;;;;;9.05;5.57;;;-0.80;99.90;;;;;;5090857;28;20036;-79
2021/04/12 04:08:36;;;;;;;11.65;4.95;;;-0.70;99.90;;;;;;5073677;28;20047;-77
2021/04/12 04:11:21;;;;;;;7.05;4.22;;;-0.60;99.90;;;;;;5105664;28;20146;-78
2021/04/12 04:14:04;;;;;;;7.65;3.97;;;-0.50;99.90;;;;;;5092303;28;20059;-78
2021/04/12 04:17:21;;;;;;;9.85;4.70;;;-0.40;99.90;;;;;;5096604;28;20058;-79
2021/04/12 04:20:24;;;;;;;8.18;4.10;;;-0.40;99.90;;;;;;5052502;28;20052;-82
2021/04/12 04:23:24;;;;;;;6.78;4.20;;;-0.40;99.90;;;;;;5073611;28;20522;-78
2021/04/12 04:25:55;;;;;;;8.32;4.13;;;-0.50;99.90;;;;;;5092392;28;20097;-79
2021/04/12 04:28:27;;;;;;;7.28;3.63;;;-0.50;99.90;;;;;;5069708;28;20062;-79
2021/04/12 04:31:24;;;;;;;6.68;3.90;;;-0.50;99.90;;;;;;5069883;28;20036;-79
2021/04/12 04:34:17;;;;;;;6.03;3.47;;;-0.50;99.90;;;;;;5065249;28;20049;-80
2021/04/12 04:37:04;;;;;;;5.80;3.35;;;-0.50;99.90;;;;;;5089237;28;20065;-78
2021/04/12 04:39:42;;;;;;;8.40;3.53;;;-0.50;99.90;;;;;;5091176;28;20102;-79
2021/04/12 04:42:46;;;;;;;6.93;3.80;;;-0.50;99.90;;;;;;5101747;28;20036;-81
2021/04/12 04:45:33;;;;;;;5.70;3.50;;;-0.40;99.90;;;;;;5086058;28;20036;-80
2021/04/12 04:48:23;;;;;;;8.95;3.65;;;-0.40;99.90;;;;;;5080123;28;20110;-81
2021/04/12 04:51:10;;;;;;;6.65;4.10;;;-0.40;99.90;;;;;;5090267;28;20044;-81
2021/04/12 04:53:57;;;;;;;9.10;3.70;;;-0.30;99.90;;;;;;5074559;28;20101;-79
2021/04/12 04:56:43;;;;;;;6.07;3.72;;;-0.30;99.90;;;;;;5068232;28;20043;-79
2021/04/12 04:59:29;;;;;;;6.13;3.10;;;-0.30;99.90;;;;;;5054720;28;20055;-83
2021/04/12 05:02:01;;;;;;;6.75;3.40;;;-0.20;99.90;;;;;;5108944;28;20044;-80
2021/04/12 05:04:59;;;;;;;4.85;2.80;;;-0.20;99.90;;;;;;5092595;28;20046;-79
2021/04/12 05:07:40;;;;;;;4.55;2.92;;;-0.20;99.90;;;;;;5087761;28;20157;-80
2021/04/12 05:10:27;;;;;;;8.13;2.95;;;-0.20;99.90;;;;;;5094763;28;20068;-79
2021/04/12 05:13:08;;;;;;;7.78;3.28;;;-0.20;99.90;;;;;;5095061;28;20044;-78
2021/04/12 05:16:23;;;;;;;7.28;3.88;;;-0.10;99.90;;;;;;5075237;28;20068;-78
2021/04/12 05:19:00;;;;;;;6.18;3.38;;;0.00;99.90;;;;;;5088851;28;20056;-78
2021/04/12 05:21:45;;;;;;;9.27;3.60;;;0.20;99.90;;;;;;5090335;28;20100;-78
2021/04/12 05:24:32;;;;;;;7.03;2.75;;;0.30;99.90;;;;;;5094352;28;20039;-77
2021/04/12 05:27:33;;;;;;;5.25;3.33;;;0.40;99.90;;;;;;5096371;28;20366;-78
2021/04/12 05:30:02;;;;;;;8.18;3.38;;;0.40;99.90;;;;;;5020084;28;20144;-79
2021/04/12 05:32:46;;;;;;;5.30;3.00;;;0.50;99.90;;;;;;5088265;28;20056;-79
2021/04/12 05:35:59;;;;;;;5.55;3.00;;;0.50;99.90;;;;;;5095056;28;20253;-78
2021/04/12 05:38:57;;;;;;;5.13;2.95;;;0.60;99.90;;;;;;5083372;28;20040;-78
2021/04/12 05:41:39;;;;;;;7.55;3.25;;;0.60;99.90;;;;;;5091746;28;20035;-83
2021/04/12 05:44:11;;;;;;;5.50;3.17;;;0.60;99.90;;;;;;5095499;28;20046;-82
2021/04/12 05:46:55;;;;;;;6.50;3.03;;;0.70;99.90;;;;;;5079918;28;20032;-81
2021/04/12 05:49:49;;;;;;;5.57;2.70;;;0.70;99.90;;;;;;5073179;28;20060;-80
2021/04/12 05:52:27;;;;;;;4.13;2.60;;;0.80;99.90;;;;;;5082603;28;20037;-86
2021/04/12 05:55:39;;;;;;;6.28;2.85;;;0.90;99.90;;;;;;5067171;28;20487;-82
2021/04/12 05:58:28;;;;;;;4.13;3.17;;;1.60;99.90;;;;;;5103833;28;20052;-80
2021/04/12 06:01:47;;;;;;;4.72;2.35;;;1.30;99.90;;;;;;5071783;28;20406;-83
2021/04/12 06:04:56;;;;;;;4.03;2.10;;;1.50;99.90;;;;;;5072123;28;20119;-82
2021/04/12 06:07:40;;;;;;;4.32;2.35;;;1.70;99.90;;;;;;5093367;28;20050;-85
2021/04/12 06:10:57;;;;;;;3.88;2.00;;;2.60;99.90;;;;;;5095946;28;20114;-85
2021/04/12 06:13:30;;;;;;;2.97;1.90;;;2.10;99.90;;;;;;5096817;28;20629;-83
2021/04/12 06:16:05;;;;;;;4.15;2.28;;;2.30;99.90;;;;;;5060342;28;20055;-85
2021/04/12 06:19:04;;;;;;;4.78;2.40;;;2.10;99.90;;;;;;5057074;28;20071;-87
2021/04/12 06:21:51;;;;;;;5.28;2.33;;;2.40;99.90;;;;;;5072018;28;20509;-78
2021/04/12 06:24:44;;;;;;;3.72;1.70;;;2.50;99.90;;;;;;5090481;28;20818;-83
2021/04/12 06:27:21;;;;;;;2.60;1.92;;;2.50;99.90;;;;;;5072490;28;20110;-85
2021/04/12 06:30:19;;;;;;;4.63;2.78;;;2.60;99.90;;;;;;5047838;28;20051;-81
2021/04/12 06:33:19;;;;;;;7.03;2.25;;;2.60;99.90;;;;;;5092767;28;20043;-79
2021/04/12 06:36:07;;;;;;;5.00;2.08;;;2.70;99.90;;;;;;5074218;28;20126;-84
2021/04/12 06:39:08;;;;;;;4.35;2.40;;;2.90;99.90;;;;;;5084225;28;20036;-81
2021/04/12 06:42:12;;;;;;;3.58;1.80;;;2.90;99.90;;;;;;5028517;28;20050;-84
2021/04/12 06:45:10;;;;;;;6.53;2.35;;;2.90;99.90;;;;;;5077582;28;20047;-81
2021/04/12 06:47:54;;;;;;;3.92;2.58;;;3.10;99.90;;;;;;5072710;28;20070;-81
2021/04/12 06:50:54;;;;;;;5.55;2.38;;;3.20;99.90;;;;;;5086599;28;20036;-82
2021/04/12 06:53:48;;;;;;;4.82;2.38;;;3.20;99.90;;;;;;5075208;28;20040;-84
2021/04/12 06:56:22;;;;;;;3.78;2.13;;;3.20;99.90;;;;;;5075659;28;20131;-84
2021/04/12 06:59:20;;;;;;;6.25;2.17;;;3.40;99.90;;;;;;5078143;28;20036;-81
2021/04/12 07:02:12;;;;;;;4.90;2.20;;;3.40;99.90;;;;;;5047086;28;20056;-83
2021/04/12 07:05:25;;;;;;;6.50;2.28;;;3.60;99.90;;;;;;5076325;28;20047;-82
2021/04/12 07:08:25;;;;;;;5.85;2.20;;;3.60;99.90;;;;;;5005791;28;20496;-82
2021/04/12 07:11:27;;;;;;;3.53;2.20;;;3.60;99.90;;;;;;5065676;28;20048;-84
2021/04/12 07:14:44;;;;;;;4.22;1.98;;;3.80;99.90;;;;;;5041084;28;20076;-81
2021/04/12 07:17:28;;;;;;;4.55;2.03;;;3.80;99.90;;;;;;5007467;28;20157;-83
2021/04/12 07:20:09;;;;;;;3.58;1.80;;;3.90;99.90;;;;;;5049717;28;20778;-83
2021/04/12 07:23:12;;;;;;;8.57;2.20;;;4.90;99.90;;;;;;5072851;28;20719;-82
2021/04/12 07:26:26;;;;;;;5.72;2.50;;;4.20;99.90;;;;;;5056228;28;20504;-77
2021/04/12 07:29:14;;;;;;;5.20;2.10;;;4.20;99.90;;;;;;5042996;28;20040;-79
2021/04/12 07:32:28;;;;;;;4.85;2.05;;;4.10;99.90;;;;;;5074946;28;20049;-82
2021/04/12 07:35:06;;;;;;;5.60;2.03;;;4.20;99.90;;;;;;5058423;28;20048;-81
2021/04/12 07:38:03;;;;;;;6.10;2.30;;;4.30;99.90;;;;;;5065311;28;20060;-81
2021/04/12 07:40:41;;;;;;;5.82;2.97;;;4.40;99.90;;;;;;5068795;28;20052;-79
2021/04/12 07:43:49;;;;;;;3.78;1.73;;;4.50;99.90;;;;;;5067219;28;20046;-80
2021/04/12 07:46:44;;;;;;;5.30;2.63;;;4.50;99.90;;;;;;5071810;28;20033;-82
2021/04/12 07:49:47;;;;;;;5.43;1.90;;;4.60;99.90;;;;;;5070362;28;20036;-82
2021/04/12 07:52:51;;;;;;;4.03;1.70;;;4.80;99.90;;;;;;5050910;28;20048;-82
2021/04/12 07:55:38;;;;;;;6.40;1.80;;;4.80;99.90;;;;;;5079884;28;20098;-78
2021/04/12 07:58:22;;;;;;;5.50;2.00;;;4.90;99.90;;;;;;5079741;28;20162;-79
2021/04/12 08:01:03;;;;;;;6.93;2.45;;;5.00;99.90;;;;;;5071642;28;20056;-80
2021/04/12 08:03:57;;;;;;;4.80;2.00;;;5.10;99.90;;;;;;5081522;28;20100;-77
2021/04/12 08:06:32;;;;;;;6.35;1.90;;;5.20;99.90;;;;;;5049920;28;20053;-82
2021/04/12 08:09:19;;;;;;;6.32;1.80;;;5.20;99.90;;;;;;5079176;28;20036;-82
2021/04/12 08:12:07;;;;;;;4.30;1.85;;;5.20;99.90;;;;;;5086298;28;20048;-81
2021/04/12 08:14:51;;;;;;;3.28;1.88;;;5.20;99.90;;;;;;5081951;28;20028;-79
2021/04/12 08:17:48;;;;;;;8.68;2.33;;;5.30;98.70;;;;;;5080263;28;20083;-77
2021/04/12 08:20:26;;;;;;;4.30;1.95;;;5.40;98.50;;;;;;5083939;28;20041;-76
2021/04/12 08:23:17;;;;;;;2.50;1.60;;;5.50;98.00;;;;;;5061908;28;20045;-78
2021/04/12 08:26:29;;;;;;;6.28;1.50;;;5.60;97.70;;;;;;5067495;28;20139;-78
2021/04/12 08:29:23;;;;;;;6.22;1.60;;;5.90;96.10;;;;;;5081520;28;20037;-86
2021/04/12 08:32:35;;;;;;;2.97;1.63;;;5.90;94.40;;;;;;5061882;28;20036;-84
2021/04/12 08:35:38;;;;;;;4.10;1.40;;;6.00;95.00;;;;;;5055915;28;20060;-81
2021/04/12 08:38:29;;;;;;;5.55;1.73;;;6.40;95.10;;;;;;5088187;28;20051;-82
2021/04/12 08:41:10;;;;;;;4.43;1.85;;;6.70;92.80;;;;;;5086627;28;20062;-82
2021/04/12 08:44:17;;;;;;;3.65;1.13;;;6.80;90.80;;;;;;5054723;28;20041;-83
2021/04/12 08:47:17;;;;;;;4.18;1.55;;;6.70;95.30;;;;;;5063454;28;20040;-84
2021/04/12 08:50:00;;;;;;;7.13;2.08;;;6.50;97.00;;;;;;5068192;28;20048;-83
2021/04/12 08:52:32;;;;;;;4.72;1.50;;;6.30;95.90;;;;;;5074085;28;20115;-79
2021/04/12 08:55:36;;;;;;;4.57;1.65;;;6.10;95.40;;;;;;5071131;28;20411;-79
2021/04/12 08:58:39;;;;;;;5.43;1.50;;;5.80;96.50;;;;;;5081251;28;20035;-79
2021/04/12 09:01:46;;;;;;;4.63;1.75;;;5.40;97.80;;;;;;5064830;28;20063;-84
2021/04/12 09:04:36;;;;;;;4.55;1.60;;;5.10;97.90;;;;;;5089595;28;20042;-78
2021/04/12 09:07:23;;;;;;;2.83;1.38;;;4.60;99.70;;;;;;5092337;28;20050;-84
2021/04/12 09:10:15;;;;;;;2.33;1.40;;;4.40;99.90;;;;;;5057549;28;20139;-86
2021/04/12 09:13:15;;;;;;;4.63;1.55;;;4.30;99.90;;;;;;5057922;28;20040;-83
2021/04/12 09:16:53;;;;;;;5.07;1.50;;;4.10;99.90;;;;;;5066246;28;20051;-87
2021/04/12 09:19:50;;;;;;;6.20;1.60;;;3.10;99.90;;;;;;5045199;28;20048;-87
2021/04/12 09:22:56;;;;;;;5.03;1.98;;;3.90;99.90;;;;;;5074240;28;20059;-86
2021/04/12 09:25:41;;;;;;;2.80;1.70;;;4.30;99.90;;;;;;5063819;28;20067;-78
2021/04/12 09:28:49;;;;;;;3.13;1.63;;;4.30;99.90;;;;;;5080127;28;20040;-84
2021/04/12 09:31:41;;;;;;;2.65;1.70;;;4.60;99.90;;;;;;5000177;28;20145;-83
2021/04/12 09:34:44;;;;;;;2.65;1.50;;;5.20;99.90;;;;;;5071725;28;20047;-83
2021/04/12 09:38:07;;;;;;;5.50;1.80;;;5.70;99.90;;;;;;5080174;28;20032;-83
2021/04/12 09:40:52;;;;;;;4.82;1.90;;;6.10;97.50;;;;;;5023979;28;20049;-80
2021/04/12 09:43:56;;;;;;;4.03;1.60;;;6.00;97.00;;;;;;5075762;28;20131;-83
2021/04/12 09:46:44;;;;;;;3.55;1.42;;;5.90;97.70;;;;;;5068764;28;20036;-81
2021/04/12 09:49:43;;;;;;;3.08;1.40;;;6.10;97.60;;;;;;5072270;28;20036;-81
2021/04/12 09:52:30;;;;;;;3.70;1.60;;;6.20;96.90;;;;;;5078877;28;20071;-82
2021/04/12 09:55:28;;;;;;;4.03;1.50;;;6.40;95.80;;;;;;5092929;28;20040;-80
2021/04/12 09:58:09;;;;;;;3.22;1.45;;;6.40;93.90;;;;;;5100133;28;20043;-86
2021/04/12 10:00:47;;;;;;;3.55;1.20;;;6.50;93.00;;;;;;5105891;28;20504;-78
2021/04/12 10:03:49;;;;;;;5.10;1.40;;;6.40;94.20;;;;;;5098689;28;20043;-83
2021/04/12 10:06:33;;;;;;;2.35;1.25;;;6.40;93.10;;;;;;5096461;28;20036;-83
2021/04/12 10:09:18;;;;;;;3.55;1.40;;;5.60;93.30;;;;;;5058106;28;20040;-84
2021/04/12 10:12:04;;;;;;;2.70;1.92;;;6.20;94.70;;;;;;5103724;28;20062;-83
2021/04/12 10:14:41;;;;;;;2.00;1.20;;;6.20;96.30;;;;;;5099019;28;20491;-79
2021/04/12 10:17:11;;;;;;;2.35;1.30;;;6.30;96.70;;;;;;5090291;28;20028;-81
2021/04/12 10:19:56;;;;;;;3.53;1.50;;;6.40;96.70;;;;;;5085722;28;20179;-79
2021/04/12 10:22:49;;;;;;;3.05;1.27;;;6.20;96.50;;;;;;5105622;28;20054;-81
2021/04/12 10:25:29;;;;;;;3.42;1.75;;;6.00;97.70;;;;;;5078046;28;20143;-82
2021/04/12 10:28:20;;;;;;;5.03;1.50;;;5.20;99.90;;;;;;5076651;28;20035;-83
2021/04/12 10:30:56;;;;;;;3.72;1.40;;;4.20;99.90;;;;;;5096311;28;20091;-82
2021/04/12 10:33:28;;;;;;;5.30;1.75;;;2.70;99.90;;;;;;5074123;28;20028;-81
2021/04/12 10:36:10;;;;;;;3.70;1.60;;;2.70;99.90;;;;;;5097697;28;20461;-80
2021/04/12 10:38:39;;;;;;;2.35;1.50;;;2.90;99.90;;;;;;5081793;28;20039;-81
2021/04/12 10:41:09;;;;;;;3.50;1.65;;;2.50;99.90;;;;;;5042352;28;20059;-81
2021/04/12 10:43:55;;;;;;;4.50;1.50;;;2.70;99.90;;;;;;5069577;28;20032;-81
2021/04/12 10:46:23;;;;;;;5.20;1.65;;;2.90;99.90;;;;;;5103051;28;20058;-79
2021/04/12 10:49:05;;;;;;;2.58;1.58;;;3.10;99.90;;;;;;5080998;28;20040;-80
2021/04/12 10:51:31;;;;;;;2.17;1.33;;;3.20;99.90;;;;;;5087148;28;20051;-79
2021/04/12 10:54:12;;;;;;;4.47;1.70;;;3.30;99.90;;;;;;5085000;28;20032;-79
2021/04/12 10:57:19;;;;;;;4.40;2.00;;;3.50;99.90;;;;;;5090251;28;20457;-80
2021/04/12 10:59:59;;;;;;;4.57;1.60;;;3.90;99.90;;;;;;5032054;28;20051;-78
2021/04/12 11:03:02;;;;;;;2.80;1.50;;;4.20;99.90;;;;;;5087805;28;20044;-79
2021/04/12 11:05:30;;;;;;;3.35;1.58;;;4.70;99.90;;;;;;5072763;28;20048;-79
2021/04/12 11:08:29;;;;;;;2.15;1.38;;;5.10;99.90;;;;;;5089221;28;20095;-76
2021/04/12 11:11:13;;;;;;;3.70;1.42;;;5.30;99.90;;;;;;5082215;28;20086;-77
2021/04/12 11:13:53;;;;;;;2.22;1.40;;;5.30;99.90;;;;;;5077937;28;20032;-77
2021/04/12 11:16:39;;;;;;;3.88;1.80;;;5.20;99.90;;;;;;5099800;28;20036;-81
2021/04/12 11:19:24;;;;;;;4.65;1.80;;;5.00;99.90;;;;;;5079602;28;20481;-78
2021/04/12 11:21:52;;;;;;;2.88;1.45;;;4.80;99.90;;;;;;5077760;28;20074;-78
2021/04/12 11:24:53;;;;;;;2.95;1.23;;;4.60;99.90;;;;;;5090203;28;20074;-78
2021/04/12 11:27:51;;;;;;;4.00;1.50;;;4.40;99.90;;;;;;5051357;28;20101;-80
2021/04/12 11:30:33;;;;;;;4.22;1.23;;;4.40;99.90;;;;;;5056941;28;20056;-79
2021/04/12 11:33:25;;;;;;;3.03;1.33;;;4.30;99.90;;;;;;5099153;28;20040;-79
2021/04/12 11:36:13;;;;;;;1.73;1.30;;;4.30;99.90;;;;;;5101402;28;20124;-80
2021/04/12 11:39:07;;;;;;;1.65;1.10;;;4.40;99.90;;;;;;5101718;28;20047;-76
2021/04/12 11:41:41;;;;;;;2.70;1.40;;;4.40;99.90;;;;;;5102756;28;20046;-79
2021/04/12 11:44:14;;;;;;;2.05;1.10;;;4.40;99.90;;;;;;5072057;28;20031;-81
2021/04/12 11:47:08;;;;;;;2.42;1.50;;;4.30;99.90;;;;;;5092522;28;20081;-77
2021/04/12 11:50:04;;;;;;;2.33;1.38;;;4.30;99.90;;;;;;5073991;28;20036;-78
2021/04/12 11:52:57;;;;;;;3.03;1.85;;;4.20;99.90;;;;;;5094156;28;20116;-77
2021/04/12 11:55:38;;;;;;;5.57;1.67;;;4.10;99.90;;;;;;5086746;28;20109;-79
2021/04/12 11:58:13;;;;;;;2.53;1.88;;;4.10;99.90;;;;;;5080360;28;20042;-79
2021/04/12 12:00:49;;;;;;;6.70;2.00;;;4.40;99.90;;;;;;5071497;28;20721;-79
2021/04/12 12:03:22;;;;;;;2.70;1.70;;;4.70;99.90;;;;;;5089933;28;20495;-79
2021/04/12 12:05:57;;;;;;;2.08;1.40;;;4.80;99.90;;;;;;5081930;28;20043;-78
2021/04/12 12:08:37;;;;;;;3.60;1.55;;;4.90;99.90;;;;;;5073046;28;20032;-78
2021/04/12 12:11:08;;;;;;;2.72;1.42;;;4.90;99.90;;;;;;5094800;28;20016;-77
2021/04/12 12:13:55;;;;;;;5.35;1.80;;;4.70;99.90;;;;;;5065168;28;20548;-78
2021/04/12 12:16:26;;;;;;;3.28;1.65;;;4.80;99.90;;;;;;5082081;28;20453;-80
2021/04/12 12:19:10;;;;;;;3.20;1.50;;;4.70;99.90;;;;;;5066100;28;20036;-79
2021/04/12 12:21:45;;;;;;;3.20;1.70;;;4.60;99.90;;;;;;5087930;28;20044;-82
2021/04/12 12:24:22;;;;;;;3.85;1.90;;;4.60;99.90;;;;;;5085279;28;20044;-81
2021/04/12 12:27:04;;;;;;;3.70;1.75;;;4.50;99.90;;;;;;5093098;28;20039;-82
2021/04/12 12:29:33;;;;;;;2.97;2.08;;;4.50;99.90;;;;;;5084383;28;20024;-82
2021/04/12 12:32:14;;;;;;;4.53;1.90;;;4.70;99.90;;;;;;5072505;28;20040;-82
2021/04/12 12:35:07;;;;;;;4.28;1.80;;;5.00;99.90;;;;;;5065713;28;20040;-82
2021/04/12 12:38:04;;;;;;;3.25;1.60;;;5.10;99.90;;;;;;5085548;28;20073;-83
2021/04/12 12:40:45;;;;;;;3.97;1.70;;;5.00;99.90;;;;;;5065264;28;20050;-82
2021/04/12 12:43:16;;;;;;;5.25;3.45;;;5.00;99.90;;;;;;5084824;28;20039;-79
2021/04/12 12:45:43;;;;;;;5.38;2.67;;;5.80;99.90;;;;;;5086288;28;20039;-83
2021/04/12 12:48:26;;;;;;;3.63;2.13;;;5.20;99.90;;;;;;5086103;28;20032;-80
2021/04/12 12:51:01;;;;;;;4.63;2.83;;;5.20;99.90;;;;;;5113939;28;20040;-83
2021/04/12 12:53:32;;;;;;;3.92;2.88;;;5.40;99.90;;;;;;5101462;28;20123;-82
2021/04/12 12:56:02;;;;;;;2.60;2.00;;;5.70;99.90;;;;;;5080689;28;20036;-80
2021/04/12 12:58:30;;;;;;;3.00;1.60;;;6.10;99.90;;;;;;5098439;28;20035;-78
2021/04/12 13:00:59;;;;;;;5.03;1.77;;;6.30;99.90;;;;;;5072391;28;20532;-81
2021/04/12 13:03:35;;;;;;;3.47;1.88;;;6.70;98.20;;;;;;5072598;28;20469;-83
2021/04/12 13:06:27;;;;;;;3.03;2.00;;;7.00;96.90;;;;;;5061749;28;20054;-83
2021/04/12 13:09:00;;;;;;;2.90;1.42;;;7.30;96.90;;;;;;5066006;28;20064;-79
2021/04/12 13:11:43;;;;;;;2.22;1.10;;;7.50;95.90;;;;;;5068706;28;20423;-81
2021/04/12 13:14:24;;;;;;;3.40;1.30;;;7.80;94.80;;;;;;5081065;28;20039;-82
2021/04/12 13:16:50;;;;;;;3.53;1.60;;;8.00;94.20;;;;;;5058173;28;20119;-82
2021/04/12 13:19:19;;;;;;;2.47;1.23;;;8.30;86.30;;;;;;5070717;28;20059;-81
2021/04/12 13:21:52;;;;;;;2.88;1.60;;;8.70;86.00;;;;;;5084606;28;20042;-80
2021/04/12 13:24:24;;;;;;;2.30;1.50;;;8.90;86.20;;;;;;5085499;28;20114;-81
2021/04/12 13:26:59;;;;;;;3.45;1.48;;;9.50;89.90;;;;;;5077604;28;20051;-81
2021/04/12 13:29:29;;;;;;;2.45;1.17;;;9.70;85.90;;;;;;5068023;28;20461;-79
2021/04/12 13:32:08;;;;;;;4.80;2.15;;;9.40;80.60;;;;;;5059547;28;20075;-79
2021/04/12 13:35:02;;;;;;;2.65;1.30;;;8.80;80.20;;;;;;5073909;28;20124;-81
2021/04/12 13:37:59;;;;;;;3.42;1.50;;;8.60;79.80;;;;;;5070451;28;20044;-82
2021/04/12 13:41:07;;;;;;;4.30;1.63;;;8.60;79.40;;;;;;5068443;28;20118;-80
2021/04/12 13:43:39;;;;;;;3.00;1.70;;;8.30;77.60;;;;;;4987773;28;20069;-82
2021/04/12 13:46:22;;;;;;;2.23;1.30;;;8.10;79.70;;;;;;5006896;28;20046;-83
2021/04/12 13:49:16;;;;;;;3.58;1.50;;;7.90;85.10;;;;;;5036689;28;20067;-81
2021/04/12 13:51:51;;;;;;;3.50;1.40;;;8.20;88.70;;;;;;5083001;28;20095;-78
2021/04/12 13:54:30;;;;;;;4.55;2.03;;;8.70;80.60;;;;;;5082817;28;20081;-80
2021/04/12 13:57:05;;;;;;;3.13;1.40;;;8.80;81.90;;;;;;5079931;28;20036;-82
2021/04/12 13:59:37;;;;;;;2.45;1.23;;;8.50;84.10;;;;;;5073778;28;20378;-80
2021/04/12 14:02:21;;;;;;;2.45;1.10;;;7.90;87.90;;;;;;5087903;28;20135;-82
2021/04/12 14:04:58;;;;;;;3.08;1.90;;;7.20;90.20;;;;;;5079295;28;20044;-83
2021/04/12 14:07:46;;;;;;;3.35;1.50;;;6.80;92.60;;;;;;5068661;28;20483;-82
2021/04/12 14:10:44;;;;;;;3.00;2.05;;;6.60;94.60;;;;;;5063942;28;20464;-82
2021/04/12 14:13:21;;;;;;;4.65;2.13;;;6.50;94.60;;;;;;5065207;28;20304;-86
2021/04/12 14:15:58;;;;;;;4.15;1.80;;;6.40;95.20;;;;;;5037969;28;20406;-85
2021/04/12 14:18:34;;;;;;;5.43;2.90;;;6.30;95.80;;;;;;5066229;28;20310;-79
2021/04/12 14:21:25;;;;;;;4.38;2.10;;;6.30;96.30;;;;;;5081767;28;20477;-84
2021/04/12 14:24:01;;;;;;;3.50;1.40;;;6.20;97.10;;;;;;5057927;28;20520;-82
2021/04/12 14:26:33;;;;;;;3.92;1.58;;;6.20;97.10;;;;;;5077766;28;20496;-80
2021/04/12 14:29:06;;;;;;;4.47;1.73;;;5.80;98.00;;;;;;5066930;28;20036;-84
2021/04/12 14:31:37;;;;;;;4.55;1.70;;;5.20;99.80;;;;;;5079067;28;20492;-87
2021/04/12 14:34:11;;;;;;;1.95;1.20;;;4.80;99.90;;;;;;5079870;28;20067;-81
2021/04/12 14:36:43;;;;;;;2.53;1.58;;;4.90;99.90;;;;;;5057315;28;20183;-83
2021/04/12 14:39:30;;;;;;;3.75;1.73;;;5.70;99.90;;;;;;5083360;28;20482;-85